Time;durP1;ratioP1;P1;durP2;ratioP2;P2;SDS_P1;SDS_P2;PMS_P1;PMS_P2;Temp;Humidity;BMP_temperature;BMP_pressure;BME280_temperature;BME280_humidity;BME280_pressure;Samples;Min_cycle;Max_cycle;Signal;HPM_P1;HPM_P2
2021/03/16 00:00:27;;;;;;;10.48;7.45;;;;;;;;;;5019552;28;20032;-84
2021/03/16 00:02:53;;;;;;;12.75;8.00;;;;;;;;;;5001573;28;20038;-85
2021/03/16 00:05:19;;;;;;;10.93;7.38;;;;;;;;;;5002372;28;20030;-83
2021/03/16 00:07:45;;;;;;;12.32;8.75;;;;;;;;;;5019413;28;20030;-85
2021/03/16 00:10:11;;;;;;;12.20;8.00;;;;;;;;;;5001991;28;20045;-85
2021/03/16 00:12:37;;;;;;;15.90;9.07;;;;;;;;;;5002270;28;20312;-85
2021/03/16 00:15:03;;;;;;;14.75;9.57;;;;;;;;;;5019509;28;20394;-85
2021/03/16 00:17:48;;;;;;;14.82;9.85;;;;;;;;;;5002172;28;20029;-85
2021/03/16 00:20:15;;;;;;;23.92;11.38;;;;;;;;;;5018562;28;20025;-85
2021/03/16 00:22:41;;;;;;;15.98;9.35;;;;;;;;;;5019389;28;20057;-85
2021/03/16 00:25:07;;;;;;;17.48;9.32;;;;;;;;;;5019360;28;20061;-86
2021/03/16 00:27:33;;;;;;;17.60;10.13;;;;;;;;;;5019532;28;20053;-85
2021/03/16 00:29:59;;;;;;;17.33;9.35;;;;;;;;;;5019322;28;20114;-85
2021/03/16 00:32:25;;;;;;;14.85;9.35;;;;;;;;;;5019137;28;20105;-85
2021/03/16 00:34:51;;;;;;;14.15;9.18;;;;;;;;;;5019148;28;20447;-85
2021/03/16 00:37:17;;;;;;;17.38;9.98;;;;;;;;;;5019147;28;20018;-86
2021/03/16 00:39:43;;;;;;;15.63;9.50;;;;;;;;;;5018889;28;20428;-85
2021/03/16 00:42:10;;;;;;;17.20;10.13;;;;;;;;;;5001546;28;20022;-85
2021/03/16 00:44:36;;;;;;;16.85;9.52;;;;;;;;;;5018938;28;20052;-85
2021/03/16 00:47:02;;;;;;;16.65;9.85;;;;;;;;;;5001339;28;20172;-86
2021/03/16 00:49:28;;;;;;;19.85;10.90;;;;;;;;;;5019137;28;20113;-84
2021/03/16 00:51:55;;;;;;;24.33;12.13;;;;;;;;;;5018376;28;20436;-84
2021/03/16 00:54:21;;;;;;;17.75;10.90;;;;;;;;;;5018799;28;20032;-84
2021/03/16 00:56:47;;;;;;;17.50;10.68;;;;;;;;;;5018578;28;20022;-84
2021/03/16 00:59:13;;;;;;;15.20;9.75;;;;;;;;;;5018683;28;20034;-83
2021/03/16 01:01:39;;;;;;;15.98;10.30;;;;;;;;;;5018589;28;20046;-86
2021/03/16 01:04:06;;;;;;;17.33;10.13;;;;;;;;;;5018801;28;20026;-87
2021/03/16 01:06:32;;;;;;;15.98;10.20;;;;;;;;;;5018696;28;20021;-87
2021/03/16 01:08:58;;;;;;;13.90;9.35;;;;;;;;;;5001196;28;20030;-87
2021/03/16 01:11:24;;;;;;;16.10;10.15;;;;;;;;;;5018570;28;20084;-85
2021/03/16 01:13:50;;;;;;;16.70;10.07;;;;;;;;;;5001054;28;20048;-85
2021/03/16 01:16:16;;;;;;;16.10;10.13;;;;;;;;;;5001150;28;20045;-85
2021/03/16 01:18:42;;;;;;;18.30;11.13;;;;;;;;;;5018692;28;20320;-86
2021/03/16 01:21:08;;;;;;;16.60;10.27;;;;;;;;;;5000982;28;20057;-86
2021/03/16 01:23:35;;;;;;;19.48;10.68;;;;;;;;;;5018644;28;20117;-85
2021/03/16 01:26:01;;;;;;;17.13;10.68;;;;;;;;;;5018303;28;20112;-85
2021/03/16 01:28:27;;;;;;;15.05;10.45;;;;;;;;;;5018309;28;20034;-84
2021/03/16 01:30:53;;;;;;;14.68;10.38;;;;;;;;;;5017752;28;20018;-85
2021/03/16 01:33:19;;;;;;;15.00;10.32;;;;;;;;;;5017783;28;20348;-85
2021/03/16 01:35:45;;;;;;;17.35;10.77;;;;;;;;;;5000558;28;20025;-85
2021/03/16 01:38:11;;;;;;;15.43;10.27;;;;;;;;;;5018240;28;20024;-85
2021/03/16 01:40:40;;;;;;;18.73;10.57;;;;;;;;;;5018248;28;20025;-85
2021/03/16 01:43:11;;;;;;;16.25;10.55;;;;;;;;;;5018373;28;20249;-85
2021/03/16 01:45:37;;;;;;;16.90;11.13;;;;;;;;;;5018176;28;20030;-86
2021/03/16 01:48:04;;;;;;;16.42;10.10;;;;;;;;;;5018079;28;20478;-87
2021/03/16 01:50:30;;;;;;;14.88;9.90;;;;;;;;;;5017781;28;20032;-86
2021/03/16 01:52:57;;;;;;;17.45;11.30;;;;;;;;;;5018075;28;20033;-86
2021/03/16 01:55:23;;;;;;;14.85;9.95;;;;;;;;;;5018335;28;20098;-86
2021/03/16 01:57:52;;;;;;;16.75;9.80;;;;;;;;;;5000722;28;20050;-86
2021/03/16 02:00:18;;;;;;;15.35;9.65;;;;;;;;;;5017879;28;20026;-85
2021/03/16 02:02:44;;;;;;;16.63;10.77;;;;;;;;;;5017831;28;20400;-86
2021/03/16 02:05:11;;;;;;;15.77;9.55;;;;;;;;;;5000354;28;20402;-86
2021/03/16 02:07:42;;;;;;;14.60;10.18;;;;;;;;;;5017958;28;20030;-85
2021/03/16 02:10:08;;;;;;;13.20;9.68;;;;;;;;;;5017872;28;20034;-85
2021/03/16 02:13:01;;;;;;;18.23;10.25;;;;;;;;;;5017916;28;20030;-85
2021/03/16 02:15:30;;;;;;;16.30;9.65;;;;;;;;;;5013718;28;20064;-85
2021/03/16 02:17:58;;;;;;;15.45;9.98;;;;;;;;;;5017764;28;20034;-87
2021/03/16 02:20:33;;;;;;;15.00;9.82;;;;;;;;;;5000218;28;20022;-86
2021/03/16 02:23:01;;;;;;;12.73;9.18;;;;;;;;;;5017539;28;20054;-86
2021/03/16 02:25:34;;;;;;;17.05;10.55;;;;;;;;;;5017507;28;20037;-86
2021/03/16 02:28:22;;;;;;;13.38;9.55;;;;;;;;;;5000392;28;20084;-86
2021/03/16 02:30:49;;;;;;;16.30;10.05;;;;;;;;;;5017808;28;20046;-85
2021/03/16 02:33:17;;;;;;;14.95;10.00;;;;;;;;;;5000013;28;20030;-84
2021/03/16 02:35:45;;;;;;;14.00;10.32;;;;;;;;;;5017585;28;20018;-86
2021/03/16 02:38:12;;;;;;;13.88;9.85;;;;;;;;;;5017460;28;20022;-85
2021/03/16 02:40:39;;;;;;;14.35;9.63;;;;;;;;;;5017509;28;20026;-86
2021/03/16 02:43:06;;;;;;;13.68;9.85;;;;;;;;;;5001126;28;20123;-85
2021/03/16 02:45:32;;;;;;;13.73;9.07;;;;;;;;;;5021489;28;20324;-86
2021/03/16 02:47:59;;;;;;;15.30;9.50;;;;;;;;;;5003647;28;20045;-86
2021/03/16 02:50:25;;;;;;;12.90;9.20;;;;;;;;;;5003850;28;20029;-85
2021/03/16 02:52:52;;;;;;;15.13;9.52;;;;;;;;;;5021093;28;20034;-85
2021/03/16 02:55:19;;;;;;;18.42;10.43;;;;;;;;;;5021083;28;20074;-85
2021/03/16 02:57:45;;;;;;;14.95;9.63;;;;;;;;;;5020981;28;20053;-85
2021/03/16 03:00:12;;;;;;;13.95;9.35;;;;;;;;;;5021072;28;20076;-85
2021/03/16 03:02:39;;;;;;;16.60;10.20;;;;;;;;;;5003714;28;20491;-85
2021/03/16 03:05:07;;;;;;;15.02;9.35;;;;;;;;;;5003819;28;20332;-85
2021/03/16 03:07:36;;;;;;;14.60;9.65;;;;;;;;;;5020876;28;20021;-87
2021/03/16 03:10:03;;;;;;;15.63;10.05;;;;;;;;;;5003656;28;20044;-87
2021/03/16 03:12:29;;;;;;;17.33;10.18;;;;;;;;;;5020876;28;20030;-86
2021/03/16 03:15:01;;;;;;;15.63;10.00;;;;;;;;;;5020825;28;20030;-87
2021/03/16 03:17:28;;;;;;;16.23;9.80;;;;;;;;;;5020690;28;20026;-86
2021/03/16 03:19:54;;;;;;;16.52;9.98;;;;;;;;;;5020642;28;20088;-87
2021/03/16 03:22:31;;;;;;;16.25;9.65;;;;;;;;;;5003433;28;20046;-86
2021/03/16 03:24:58;;;;;;;14.00;9.73;;;;;;;;;;5002851;28;20140;-87
2021/03/16 03:27:45;;;;;;;16.27;10.63;;;;;;;;;;5020631;28;20022;-86
2021/03/16 03:30:11;;;;;;;15.75;9.90;;;;;;;;;;5020703;28;20037;-86
2021/03/16 03:32:38;;;;;;;16.13;9.90;;;;;;;;;;5020604;28;20324;-85
2021/03/16 03:35:05;;;;;;;14.95;9.43;;;;;;;;;;5020312;28;20423;-85
2021/03/16 03:37:32;;;;;;;15.63;9.98;;;;;;;;;;5020351;28;20033;-85
2021/03/16 03:39:58;;;;;;;16.35;10.38;;;;;;;;;;5020363;28;20400;-84
2021/03/16 03:42:25;;;;;;;19.05;11.57;;;;;;;;;;5020503;28;20459;-85
2021/03/16 03:44:52;;;;;;;16.10;9.68;;;;;;;;;;5002791;28;20077;-85
2021/03/16 03:47:19;;;;;;;17.00;9.80;;;;;;;;;;5002815;28;20032;-85
2021/03/16 03:49:45;;;;;;;14.60;9.63;;;;;;;;;;5020069;28;20097;-87
2021/03/16 03:52:13;;;;;;;14.50;9.88;;;;;;;;;;5020601;28;20030;-86
2021/03/16 03:54:43;;;;;;;15.40;9.15;;;;;;;;;;5019312;28;20367;-85
2021/03/16 03:57:10;;;;;;;17.23;10.30;;;;;;;;;;5019999;28;20055;-86
2021/03/16 03:59:55;;;;;;;16.55;10.13;;;;;;;;;;5002622;28;20196;-86
2021/03/16 04:02:21;;;;;;;15.90;9.93;;;;;;;;;;5019950;28;20377;-86
2021/03/16 04:04:50;;;;;;;14.77;9.70;;;;;;;;;;5020172;28;20050;-87
2021/03/16 04:07:17;;;;;;;16.00;9.18;;;;;;;;;;5002396;28;20309;-86
2021/03/16 04:09:43;;;;;;;15.13;9.32;;;;;;;;;;5020011;28;20064;-86
2021/03/16 04:12:09;;;;;;;11.98;9.18;;;;;;;;;;5002183;28;20045;-86
2021/03/16 04:14:36;;;;;;;14.45;8.32;;;;;;;;;;5019628;28;20017;-85
2021/03/16 04:17:02;;;;;;;14.40;9.18;;;;;;;;;;5019687;28;20080;-85
2021/03/16 04:19:28;;;;;;;14.55;9.15;;;;;;;;;;5019346;28;20375;-85
2021/03/16 04:21:55;;;;;;;16.20;9.18;;;;;;;;;;5019377;28;20042;-84
2021/03/16 04:24:22;;;;;;;15.45;9.10;;;;;;;;;;5019507;28;20034;-85
2021/03/16 04:26:48;;;;;;;14.57;9.20;;;;;;;;;;5019556;28;20030;-86
2021/03/16 04:29:14;;;;;;;14.82;8.38;;;;;;;;;;5019405;28;20306;-86
2021/03/16 04:31:40;;;;;;;15.98;8.80;;;;;;;;;;5019391;28;20022;-87
2021/03/16 04:34:06;;;;;;;14.43;9.02;;;;;;;;;;5019600;28;20030;-87
2021/03/16 04:36:32;;;;;;;13.07;8.75;;;;;;;;;;5019395;28;20018;-86
2021/03/16 04:38:58;;;;;;;11.95;8.60;;;;;;;;;;5019570;28;20078;-87
2021/03/16 04:41:24;;;;;;;15.15;8.95;;;;;;;;;;5018935;28;20029;-87
2021/03/16 04:43:50;;;;;;;19.23;10.15;;;;;;;;;;5019111;28;20116;-87
2021/03/16 04:46:17;;;;;;;21.98;10.88;;;;;;;;;;5019039;28;20028;-87
2021/03/16 04:48:43;;;;;;;20.27;10.45;;;;;;;;;;5019309;28;20021;-85
2021/03/16 04:51:09;;;;;;;17.60;9.48;;;;;;;;;;5018700;28;20107;-84
2021/03/16 04:53:35;;;;;;;17.48;10.30;;;;;;;;;;5001234;28;20040;-85
2021/03/16 04:56:01;;;;;;;14.45;9.23;;;;;;;;;;5018725;28;20022;-86
2021/03/16 04:58:27;;;;;;;15.52;9.63;;;;;;;;;;5018798;28;20305;-86
2021/03/16 05:00:53;;;;;;;16.95;9.75;;;;;;;;;;5019055;28;20097;-86
2021/03/16 05:03:19;;;;;;;13.98;8.88;;;;;;;;;;5019014;28;20053;-86
2021/03/16 05:05:45;;;;;;;17.67;9.13;;;;;;;;;;5018838;28;20032;-85
2021/03/16 05:08:11;;;;;;;13.20;8.32;;;;;;;;;;5018625;28;20091;-86
2021/03/16 05:10:37;;;;;;;15.45;9.35;;;;;;;;;;5001038;28;20045;-84
2021/03/16 05:13:03;;;;;;;13.68;8.98;;;;;;;;;;5018508;28;20029;-84
2021/03/16 05:15:29;;;;;;;13.18;9.05;;;;;;;;;;5000729;28;20034;-84
2021/03/16 05:17:56;;;;;;;16.70;10.18;;;;;;;;;;5001135;28;20042;-85
2021/03/16 05:20:22;;;;;;;11.07;8.48;;;;;;;;;;5018333;28;20022;-85
2021/03/16 05:22:49;;;;;;;14.45;9.52;;;;;;;;;;5018339;28;20049;-84
2021/03/16 05:25:15;;;;;;;19.02;10.75;;;;;;;;;;5018122;28;20069;-85
2021/03/16 05:27:41;;;;;;;19.25;10.50;;;;;;;;;;5018512;28;20410;-84
2021/03/16 05:30:08;;;;;;;17.60;10.68;;;;;;;;;;5018279;28;20030;-85
2021/03/16 05:32:34;;;;;;;14.93;9.13;;;;;;;;;;5018324;28;20113;-86
2021/03/16 05:35:00;;;;;;;15.05;10.65;;;;;;;;;;5018257;28;20022;-86
2021/03/16 05:37:26;;;;;;;15.63;10.75;;;;;;;;;;5018322;28;20355;-86
2021/03/16 05:39:52;;;;;;;15.35;9.38;;;;;;;;;;5018385;28;20316;-86
2021/03/16 05:42:19;;;;;;;15.73;8.85;;;;;;;;;;5018675;28;20041;-86
2021/03/16 05:44:46;;;;;;;37.67;18.45;;;;;;;;;;5018228;28;20432;-85
2021/03/16 05:47:12;;;;;;;36.63;21.00;;;;;;;;;;5018134;28;20025;-86
2021/03/16 05:49:39;;;;;;;18.08;11.82;;;;;;;;;;5017932;28;20033;-86
2021/03/16 05:52:06;;;;;;;16.85;13.00;;;;;;;;;;5018189;28;20044;-86
2021/03/16 05:54:32;;;;;;;21.92;12.55;;;;;;;;;;5018109;28;20040;-86
2021/03/16 05:57:00;;;;;;;22.52;10.95;;;;;;;;;;5017913;28;20145;-85
2021/03/16 05:59:26;;;;;;;18.75;10.55;;;;;;;;;;5017835;28;20097;-84
2021/03/16 06:01:53;;;;;;;22.83;14.65;;;;;;;;;;5018112;28;20137;-87
2021/03/16 06:04:19;;;;;;;15.85;10.02;;;;;;;;;;5017846;28;20033;-86
2021/03/16 06:06:45;;;;;;;17.85;10.35;;;;;;;;;;5018096;28;20152;-88
2021/03/16 06:09:11;;;;;;;16.42;10.57;;;;;;;;;;5017844;28;20030;-86
2021/03/16 06:11:46;;;;;;;16.27;9.48;;;;;;;;;;5017974;28;20058;-85
2021/03/16 06:14:12;;;;;;;17.20;9.32;;;;;;;;;;5017489;28;20052;-87
2021/03/16 06:16:38;;;;;;;14.05;8.70;;;;;;;;;;5017361;28;20050;-86
2021/03/16 06:19:04;;;;;;;16.77;9.80;;;;;;;;;;5017553;28;20097;-86
2021/03/16 06:21:30;;;;;;;17.45;9.85;;;;;;;;;;5017595;28;20048;-86
2021/03/16 06:23:58;;;;;;;13.82;8.90;;;;;;;;;;5000422;28;20064;-86
2021/03/16 06:26:25;;;;;;;16.02;7.88;;;;;;;;;;5000395;28;20076;-86
2021/03/16 06:28:51;;;;;;;17.20;9.32;;;;;;;;;;5017487;28;20030;-86
2021/03/16 06:31:25;;;;;;;15.35;8.55;;;;;;;;;;5017475;28;20054;-86
2021/03/16 06:33:51;;;;;;;15.23;9.90;;;;;;;;;;5017742;28;20332;-86
2021/03/16 06:36:17;;;;;;;21.83;10.63;;;;;;;;;;5016668;28;20026;-87
2021/03/16 06:38:44;;;;;;;18.88;11.63;;;;;;;;;;5016566;28;20113;-87
2021/03/16 06:41:14;;;;;;;20.48;12.13;;;;;;;;;;5017169;28;20046;-90
2021/03/16 06:43:41;;;;;;;39.05;17.20;;;;;;;;;;5017205;28;20026;-94
2021/03/16 06:46:08;;;;;;;27.83;13.00;;;;;;;;;;5017834;28;20516;-88
2021/03/16 06:48:36;;;;;;;24.10;13.48;;;;;;;;;;5017027;28;20029;-94
2021/03/16 06:51:15;;;;;;;17.35;11.38;;;;;;;;;;5017588;28;20038;-95
2021/03/16 06:53:41;;;;;;;13.57;10.48;;;;;;;;;;5017372;28;20034;-93
2021/03/16 06:56:08;;;;;;;17.17;11.82;;;;;;;;;;5017570;28;20026;-94
2021/03/16 06:58:35;;;;;;;16.23;12.15;;;;;;;;;;5017594;28;20312;-93
2021/03/16 07:01:08;;;;;;;19.23;11.57;;;;;;;;;;5017351;28;20049;-93
2021/03/16 07:03:34;;;;;;;21.25;13.27;;;;;;;;;;5000185;28;20085;-93
2021/03/16 07:06:11;;;;;;;21.48;13.63;;;;;;;;;;5017378;28;20056;-94
2021/03/16 07:08:37;;;;;;;23.90;15.30;;;;;;;;;;5017619;28;20026;-93
2021/03/16 07:11:08;;;;;;;27.88;15.73;;;;;;;;;;5000164;28;20022;-93
2021/03/16 07:13:34;;;;;;;26.10;14.77;;;;;;;;;;5000118;28;20065;-94
2021/03/16 07:16:04;;;;;;;23.08;14.85;;;;;;;;;;5016880;28;20026;-94
2021/03/16 07:18:35;;;;;;;17.40;11.73;;;;;;;;;;5017191;28;20026;-94
2021/03/16 07:21:07;;;;;;;15.10;11.95;;;;;;;;;;5017772;28;20054;-93
2021/03/16 07:23:38;;;;;;;15.95;11.00;;;;;;;;;;4999785;28;20125;-93
2021/03/16 07:26:05;;;;;;;15.88;10.90;;;;;;;;;;5017001;28;20026;-94
2021/03/16 07:28:34;;;;;;;14.15;10.40;;;;;;;;;;5017105;28;20038;-94
2021/03/16 07:31:01;;;;;;;17.42;10.85;;;;;;;;;;5019689;28;20076;-93
2021/03/16 07:33:28;;;;;;;18.55;11.50;;;;;;;;;;5020766;28;20112;-93
2021/03/16 07:35:54;;;;;;;15.02;10.68;;;;;;;;;;5020824;28;20285;-93
2021/03/16 07:38:21;;;;;;;16.65;11.18;;;;;;;;;;5003251;28;20033;-93
2021/03/16 07:40:47;;;;;;;16.70;11.70;;;;;;;;;;5020385;28;20025;-94
2021/03/16 07:43:13;;;;;;;17.45;10.30;;;;;;;;;;5020725;28;20032;-93
2021/03/16 07:45:40;;;;;;;20.05;12.77;;;;;;;;;;5002896;28;20041;-93
2021/03/16 07:48:15;;;;;;;60.83;33.75;;;;;;;;;;5020511;28;20037;-93
2021/03/16 07:50:41;;;;;;;28.45;17.38;;;;;;;;;;5020313;28;20030;-93
2021/03/16 07:53:07;;;;;;;20.95;13.35;;;;;;;;;;5019950;28;20026;-94
2021/03/16 07:55:34;;;;;;;17.35;12.20;;;;;;;;;;5019950;28;20026;-93
2021/03/16 07:58:06;;;;;;;18.55;12.10;;;;;;;;;;5020365;28;20030;-92
2021/03/16 08:00:32;;;;;;;;;;;;;;;;;;5020479;28;20018;-93
2021/03/16 08:02:59;;;;;;;17.67;12.13;;;;;;;;;;5020265;28;19931;-92
2021/03/16 08:05:26;;;;;;;17.00;11.75;;;;;;;;;;5003288;28;20026;-94
2021/03/16 08:07:52;;;;;;;21.95;12.85;;;;;;;;;;5019969;28;20033;-92
2021/03/16 08:10:28;;;;;;;16.05;10.85;;;;;;;;;;5019927;28;20034;-91
2021/03/16 08:13:04;;;;;;;18.83;12.75;;;;;;;;;;5019666;28;20022;-92
2021/03/16 08:15:40;;;;;;;18.25;12.23;;;;;;;;;;5002227;28;20026;-92
2021/03/16 08:18:07;;;;;;;18.40;12.48;;;;;;;;;;5002510;28;20033;-92
2021/03/16 08:20:33;;;;;;;20.85;13.75;;;;;;;;;;5002282;28;20479;-92
2021/03/16 08:23:25;;;;;;;21.67;13.13;;;;;;;;;;5002283;28;20350;-93
2021/03/16 08:25:51;;;;;;;16.50;12.30;;;;;;;;;;4998970;28;20038;-92
2021/03/16 08:28:17;;;;;;;18.88;12.55;;;;;;;;;;5002349;28;20038;-91
2021/03/16 08:30:44;;;;;;;21.20;13.73;;;;;;;;;;5019752;28;20116;-91
2021/03/16 08:33:11;;;;;;;19.23;14.50;;;;;;;;;;5002004;28;20451;-92
2021/03/16 08:35:40;;;;;;;18.63;11.73;;;;;;;;;;5019541;28;20026;-92
2021/03/16 08:38:09;;;;;;;19.63;12.93;;;;;;;;;;5019592;28;20080;-93
2021/03/16 08:40:36;;;;;;;18.02;12.70;;;;;;;;;;5019010;28;20022;-93
2021/03/16 08:43:08;;;;;;;20.92;13.20;;;;;;;;;;5019487;28;20088;-93
2021/03/16 08:45:34;;;;;;;18.88;12.73;;;;;;;;;;5001930;28;20034;-93
2021/03/16 08:48:00;;;;;;;23.42;12.85;;;;;;;;;;5019098;28;20026;-92
2021/03/16 08:50:27;;;;;;;19.30;13.30;;;;;;;;;;5019027;28;20017;-93
2021/03/16 08:52:53;;;;;;;19.63;13.13;;;;;;;;;;5019189;28;20057;-93
2021/03/16 08:55:24;;;;;;;18.70;12.95;;;;;;;;;;5018439;28;20033;-91
2021/03/16 08:57:51;;;;;;;18.70;12.55;;;;;;;;;;5018910;28;20018;-91
2021/03/16 09:00:17;;;;;;;17.63;12.60;;;;;;;;;;5001512;28;20406;-92
2021/03/16 09:02:43;;;;;;;23.42;13.50;;;;;;;;;;5018904;28;20359;-91
2021/03/16 09:05:18;;;;;;;18.92;13.38;;;;;;;;;;5018793;28;20030;-90
2021/03/16 09:07:44;;;;;;;18.02;12.82;;;;;;;;;;5018882;28;20109;-92
2021/03/16 09:10:12;;;;;;;21.42;13.95;;;;;;;;;;5018965;28;20293;-91
2021/03/16 09:12:43;;;;;;;19.80;14.07;;;;;;;;;;5018723;28;20061;-91
2021/03/16 09:15:20;;;;;;;21.27;14.75;;;;;;;;;;5001341;28;20046;-92
2021/03/16 09:17:52;;;;;;;22.92;14.95;;;;;;;;;;5018823;28;20112;-91
2021/03/16 09:20:21;;;;;;;25.83;15.85;;;;;;;;;;5018774;28;20111;-90
2021/03/16 09:22:55;;;;;;;21.70;13.77;;;;;;;;;;5018592;28;20129;-91
2021/03/16 09:25:28;;;;;;;24.65;16.27;;;;;;;;;;5001362;28;20029;-91
2021/03/16 09:28:07;;;;;;;24.08;15.50;;;;;;;;;;5000949;28;20180;-91
2021/03/16 09:30:35;;;;;;;25.00;15.73;;;;;;;;;;5018693;28;20033;-91
2021/03/16 09:33:01;;;;;;;23.88;15.18;;;;;;;;;;5018365;28;20293;-93
2021/03/16 09:35:28;;;;;;;22.83;14.40;;;;;;;;;;5018567;28;20029;-91
2021/03/16 09:37:54;;;;;;;22.33;14.75;;;;;;;;;;5018374;28;20064;-91
2021/03/16 09:40:40;;;;;;;22.40;15.57;;;;;;;;;;5000596;28;20030;-91
2021/03/16 09:43:19;;;;;;;20.02;14.43;;;;;;;;;;5018127;28;20032;-93
2021/03/16 09:45:52;;;;;;;23.85;14.43;;;;;;;;;;5018280;28;20026;-93
2021/03/16 09:48:18;;;;;;;17.48;12.73;;;;;;;;;;5018209;28;20029;-92
2021/03/16 09:50:45;;;;;;;21.10;13.98;;;;;;;;;;5018090;28;20042;-91
2021/03/16 09:53:12;;;;;;;20.90;14.70;;;;;;;;;;5017212;28;20036;-92
2021/03/16 09:55:38;;;;;;;23.83;15.20;;;;;;;;;;5017951;28;20032;-92
2021/03/16 09:58:05;;;;;;;26.67;15.82;;;;;;;;;;5018136;28;20022;-92
2021/03/16 10:00:31;;;;;;;23.75;15.98;;;;;;;;;;5000833;28;20022;-93
2021/03/16 10:03:04;;;;;;;25.23;16.88;;;;;;;;;;5017827;28;20022;-81
2021/03/16 10:05:30;;;;;;;20.88;13.90;;;;;;;;;;5017816;28;20488;-84
2021/03/16 10:07:56;;;;;;;24.08;14.88;;;;;;;;;;5017669;28;20057;-85
2021/03/16 10:10:24;;;;;;;26.00;16.95;;;;;;;;;;5017749;28;20026;-85
2021/03/16 10:12:53;;;;;;;21.80;14.60;;;;;;;;;;4999694;28;20041;-85
2021/03/16 10:15:23;;;;;;;20.88;13.13;;;;;;;;;;5017667;28;20320;-84
2021/03/16 10:17:50;;;;;;;24.40;14.80;;;;;;;;;;5017416;28;20022;-85
2021/03/16 10:20:17;;;;;;;27.48;14.93;;;;;;;;;;5017543;28;20033;-84
2021/03/16 10:22:43;;;;;;;20.23;13.63;;;;;;;;;;4999106;28;20442;-83
2021/03/16 10:25:10;;;;;;;22.67;13.90;;;;;;;;;;5017458;28;20034;-83
2021/03/16 10:27:36;;;;;;;21.17;13.80;;;;;;;;;;5017363;28;20108;-84
2021/03/16 10:30:11;;;;;;;22.08;14.38;;;;;;;;;;5017258;28;20026;-84
2021/03/16 10:32:38;;;;;;;21.17;14.05;;;;;;;;;;5017161;28;20413;-84
2021/03/16 10:35:04;;;;;;;21.10;14.70;;;;;;;;;;5017202;28;20077;-83
2021/03/16 10:37:30;;;;;;;20.02;14.27;;;;;;;;;;5016936;28;20106;-83
2021/03/16 10:39:59;;;;;;;22.58;13.52;;;;;;;;;;4999895;28;20026;-84
2021/03/16 10:42:25;;;;;;;21.17;15.35;;;;;;;;;;4999855;28;20033;-84
2021/03/16 10:44:52;;;;;;;17.48;12.85;;;;;;;;;;5017295;28;20018;-83
2021/03/16 10:47:18;;;;;;;21.60;14.98;;;;;;;;;;5017288;28;20153;-83
2021/03/16 10:49:44;;;;;;;20.58;14.32;;;;;;;;;;5017163;28;20030;-83
2021/03/16 10:52:10;;;;;;;23.00;15.32;;;;;;;;;;5017379;28;20034;-84
2021/03/16 10:54:38;;;;;;;20.92;14.93;;;;;;;;;;5017192;28;20065;-83
2021/03/16 10:57:04;;;;;;;23.83;15.88;;;;;;;;;;4999119;28;20030;-83
2021/03/16 10:59:30;;;;;;;23.17;16.63;;;;;;;;;;4999133;28;20030;-83
2021/03/16 11:01:56;;;;;;;24.80;16.58;;;;;;;;;;5016877;28;20046;-83
2021/03/16 11:04:22;;;;;;;20.70;15.60;;;;;;;;;;5000756;28;20065;-83
2021/03/16 11:06:48;;;;;;;20.15;14.82;;;;;;;;;;5020572;28;20109;-83
2021/03/16 11:09:15;;;;;;;76.72;39.95;;;;;;;;;;5020466;28;20431;-82
2021/03/16 11:11:41;;;;;;;45.85;31.50;;;;;;;;;;5020763;28;20084;-83
2021/03/16 11:14:07;;;;;;;30.80;24.45;;;;;;;;;;5020334;28;20022;-82
2021/03/16 11:16:33;;;;;;;21.77;15.40;;;;;;;;;;5020427;28;20293;-83
2021/03/16 11:19:00;;;;;;;28.65;23.95;;;;;;;;;;5020350;28;20029;-82
2021/03/16 11:21:26;;;;;;;29.48;17.63;;;;;;;;;;5002758;28;20030;-82
2021/03/16 11:23:53;;;;;;;22.38;15.95;;;;;;;;;;5002580;28;20026;-83
2021/03/16 11:26:19;;;;;;;23.80;18.25;;;;;;;;;;5002931;28;20022;-82
2021/03/16 11:28:56;;;;;;;24.02;19.63;;;;;;;;;;5020144;28;20026;-82
2021/03/16 11:31:22;;;;;;;23.90;16.58;;;;;;;;;;5020235;28;20022;-82
2021/03/16 11:33:48;;;;;;;22.30;16.40;;;;;;;;;;5002353;28;20121;-81
2021/03/16 11:36:14;;;;;;;26.52;16.45;;;;;;;;;;5019977;28;20076;-82
2021/03/16 11:38:41;;;;;;;21.92;14.98;;;;;;;;;;5019911;28;20025;-81
2021/03/16 11:41:08;;;;;;;19.42;14.40;;;;;;;;;;5002457;28;20364;-81
2021/03/16 11:43:34;;;;;;;23.13;16.55;;;;;;;;;;5019961;28;20080;-81
2021/03/16 11:46:00;;;;;;;19.52;14.55;;;;;;;;;;5019774;28;20132;-81
2021/03/16 11:48:26;;;;;;;30.02;26.20;;;;;;;;;;5019705;28;20030;-81
2021/03/16 11:50:52;;;;;;;24.40;18.55;;;;;;;;;;5019767;28;20304;-81
2021/03/16 11:53:18;;;;;;;22.50;15.85;;;;;;;;;;5019517;28;20053;-81
2021/03/16 11:55:44;;;;;;;18.05;14.10;;;;;;;;;;5001931;28;20411;-81
2021/03/16 11:58:10;;;;;;;22.02;15.85;;;;;;;;;;5019601;28;20021;-81
2021/03/16 12:00:36;;;;;;;23.55;18.40;;;;;;;;;;5019456;28;20019;-81
2021/03/16 12:03:03;;;;;;;21.92;14.90;;;;;;;;;;5019478;28;20022;-81
2021/03/16 12:05:29;;;;;;;26.73;21.35;;;;;;;;;;5002023;28;20026;-81
2021/03/16 12:07:55;;;;;;;17.90;12.57;;;;;;;;;;5001694;28;20172;-82
2021/03/16 12:10:21;;;;;;;17.38;12.80;;;;;;;;;;5019512;28;20041;-82
2021/03/16 12:12:47;;;;;;;16.17;12.60;;;;;;;;;;5001935;28;20030;-81
2021/03/16 12:15:14;;;;;;;19.52;13.52;;;;;;;;;;5000740;28;20026;-81
2021/03/16 12:17:40;;;;;;;17.08;12.18;;;;;;;;;;5018958;28;20029;-81
2021/03/16 12:20:07;;;;;;;19.08;13.45;;;;;;;;;;5019157;28;20068;-82
2021/03/16 12:22:33;;;;;;;18.17;12.93;;;;;;;;;;5018575;28;20070;-81
2021/03/16 12:24:59;;;;;;;18.30;12.93;;;;;;;;;;5001541;28;20034;-81
2021/03/16 12:27:25;;;;;;;17.38;12.90;;;;;;;;;;5001723;28;20328;-81
2021/03/16 12:29:51;;;;;;;16.35;12.93;;;;;;;;;;5019005;28;20025;-81
2021/03/16 12:32:18;;;;;;;22.42;16.23;;;;;;;;;;5018928;28;20061;-81
2021/03/16 12:34:44;;;;;;;54.22;25.13;;;;;;;;;;5018840;28;20022;-81
2021/03/16 12:37:10;;;;;;;85.18;33.80;;;;;;;;;;5018813;28;20105;-81
2021/03/16 12:39:36;;;;;;;130.13;45.28;;;;;;;;;;5018802;28;20400;-81
2021/03/16 12:42:03;;;;;;;61.42;27.38;;;;;;;;;;5018704;28;20362;-81
2021/03/16 12:44:32;;;;;;;68.07;30.50;;;;;;;;;;5001374;28;20026;-81
2021/03/16 12:47:04;;;;;;;38.22;21.85;;;;;;;;;;5001203;28;20029;-82
2021/03/16 12:49:30;;;;;;;19.08;14.75;;;;;;;;;;5018758;28;20026;-81
2021/03/16 12:51:56;;;;;;;19.85;14.27;;;;;;;;;;5018673;28;20041;-82
2021/03/16 12:54:23;;;;;;;22.35;15.20;;;;;;;;;;5018763;28;20014;-82
2021/03/16 12:56:49;;;;;;;19.08;14.13;;;;;;;;;;5018508;28;20018;-82
2021/03/16 12:59:16;;;;;;;20.38;14.90;;;;;;;;;;5018549;28;20018;-82
2021/03/16 13:01:42;;;;;;;19.75;14.27;;;;;;;;;;5000711;28;20440;-81
2021/03/16 13:04:08;;;;;;;19.52;14.00;;;;;;;;;;5018281;28;20034;-81
2021/03/16 13:06:34;;;;;;;17.85;13.68;;;;;;;;;;5018638;28;20037;-81
2021/03/16 13:09:00;;;;;;;16.20;12.80;;;;;;;;;;5000454;28;20038;-81
2021/03/16 13:11:26;;;;;;;17.08;13.32;;;;;;;;;;5018371;28;20029;-80
2021/03/16 13:13:52;;;;;;;21.02;13.98;;;;;;;;;;5018198;28;20022;-81
2021/03/16 13:16:18;;;;;;;21.75;13.75;;;;;;;;;;5018114;28;20026;-82
2021/03/16 13:18:44;;;;;;;19.45;13.57;;;;;;;;;;5017800;28;20022;-82
2021/03/16 13:21:11;;;;;;;17.50;12.77;;;;;;;;;;5017753;28;20435;-82
2021/03/16 13:23:37;;;;;;;20.27;13.80;;;;;;;;;;5018202;28;20153;-82
2021/03/16 13:26:03;;;;;;;33.67;21.30;;;;;;;;;;5017706;28;20076;-81
2021/03/16 13:28:29;;;;;;;21.13;15.93;;;;;;;;;;5017824;28;20450;-82
2021/03/16 13:30:55;;;;;;;19.73;14.00;;;;;;;;;;5017454;28;20036;-81
2021/03/16 13:33:22;;;;;;;16.67;13.05;;;;;;;;;;5000015;28;20068;-81
2021/03/16 13:35:50;;;;;;;15.93;13.10;;;;;;;;;;5017741;28;20071;-82
2021/03/16 13:38:16;;;;;;;16.80;13.60;;;;;;;;;;5000040;28;20034;-82
2021/03/16 13:40:42;;;;;;;17.08;12.82;;;;;;;;;;5000065;28;20069;-82
2021/03/16 13:43:09;;;;;;;17.58;12.60;;;;;;;;;;4999615;28;20034;-82
2021/03/16 13:45:35;;;;;;;16.50;12.15;;;;;;;;;;4999980;28;20042;-82
2021/03/16 13:48:01;;;;;;;18.27;13.10;;;;;;;;;;5017708;28;20113;-82
2021/03/16 13:50:27;;;;;;;16.80;12.20;;;;;;;;;;5017497;28;20229;-83
2021/03/16 13:52:53;;;;;;;17.83;12.38;;;;;;;;;;5017529;28;20026;-83
2021/03/16 13:55:19;;;;;;;19.48;12.02;;;;;;;;;;5017556;28;20064;-83
2021/03/16 13:57:46;;;;;;;24.75;14.38;;;;;;;;;;5017175;28;20018;-83
2021/03/16 14:00:12;;;;;;;30.08;14.40;;;;;;;;;;5017512;28;20029;-83
2021/03/16 14:02:38;;;;;;;30.50;14.88;;;;;;;;;;5017477;28;20033;-83
2021/03/16 14:05:05;;;;;;;26.20;14.88;;;;;;;;;;5017399;28;20049;-83
2021/03/16 14:07:31;;;;;;;27.58;14.68;;;;;;;;;;5017718;28;20164;-83
2021/03/16 14:09:57;;;;;;;27.65;14.32;;;;;;;;;;5017452;28;20032;-84
2021/03/16 14:12:23;;;;;;;26.70;12.77;;;;;;;;;;5017165;28;20061;-84
2021/03/16 14:14:50;;;;;;;24.45;14.15;;;;;;;;;;5017321;28;20104;-83
2021/03/16 14:17:16;;;;;;;22.25;13.20;;;;;;;;;;5017322;28;20417;-83
2021/03/16 14:19:42;;;;;;;25.80;16.15;;;;;;;;;;5017342;28;20026;-83
2021/03/16 14:22:08;;;;;;;18.35;13.15;;;;;;;;;;5016944;28;20058;-83